sensor_id;sensor_type;location;lat;lon;timestamp;pressure;altitude;pressure_sealevel;temperature;humidity
48926;BME280;39838;59.938;30.642;2023-02-28T00:00:14;100369.34;;;0.12;91.44
48926;BME280;39838;59.938;30.642;2023-02-28T00:02:42;100345.47;;;0.11;91.47
48926;BME280;39838;59.938;30.642;2023-02-28T00:05:11;100342.97;;;0.13;91.16
48926;BME280;39838;59.938;30.642;2023-02-28T00:07:39;100353.31;;;0.16;91.73
48926;BME280;39838;59.938;30.642;2023-02-28T00:10:08;100345.78;;;0.19;91.61
48926;BME280;39838;59.938;30.642;2023-02-28T00:12:38;100351.16;;;0.26;91.47
48926;BME280;39838;59.938;30.642;2023-02-28T00:15:06;100315.69;;;0.12;91.18
48926;BME280;39838;59.938;30.642;2023-02-28T00:17:34;100324.50;;;0.20;91.52
48926;BME280;39838;59.938;30.642;2023-02-28T00:20:02;100319.59;;;0.24;91.10
48926;BME280;39838;59.938;30.642;2023-02-28T00:22:30;100313.84;;;0.30;91.18
48926;BME280;39838;59.938;30.642;2023-02-28T00:24:57;100328.50;;;0.34;91.52
48926;BME280;39838;59.938;30.642;2023-02-28T00:27:24;100321.03;;;0.40;91.65
48926;BME280;39838;59.938;30.642;2023-02-28T00:29:53;100328.94;;;0.46;91.26
48926;BME280;39838;59.938;30.642;2023-02-28T00:32:20;100322.84;;;0.43;91.43
48926;BME280;39838;59.938;30.642;2023-02-28T00:34:48;100311.75;;;0.42;91.27
48926;BME280;39838;59.938;30.642;2023-02-28T00:37:15;100311.81;;;0.44;91.29
48926;BME280;39838;59.938;30.642;2023-02-28T00:39:42;100310.22;;;0.47;91.28
48926;BME280;39838;59.938;30.642;2023-02-28T00:42:09;100317.34;;;0.54;91.15
48926;BME280;39838;59.938;30.642;2023-02-28T00:44:36;100308.94;;;0.59;90.89
48926;BME280;39838;59.938;30.642;2023-02-28T00:47:05;100310.44;;;0.53;90.79
48926;BME280;39838;59.938;30.642;2023-02-28T00:49:32;100289.22;;;0.54;91.12
48926;BME280;39838;59.938;30.642;2023-02-28T00:51:59;100277.28;;;0.55;90.87
48926;BME280;39838;59.938;30.642;2023-02-28T00:54:26;100286.81;;;0.59;90.60
48926;BME280;39838;59.938;30.642;2023-02-28T00:56:54;100275.84;;;0.62;90.53
48926;BME280;39838;59.938;30.642;2023-02-28T00:59:21;100271.63;;;0.64;90.11
48926;BME280;39838;59.938;30.642;2023-02-28T01:01:48;100269.19;;;0.67;90.27
48926;BME280;39838;59.938;30.642;2023-02-28T01:04:16;100249.66;;;0.69;90.12
48926;BME280;39838;59.938;30.642;2023-02-28T01:06:44;100271.03;;;0.71;89.93
48926;BME280;39838;59.938;30.642;2023-02-28T01:09:11;100277.03;;;0.71;89.70
48926;BME280;39838;59.938;30.642;2023-02-28T01:11:38;100263.28;;;0.68;89.82
48926;BME280;39838;59.938;30.642;2023-02-28T01:14:08;100244.66;;;0.72;89.61
48926;BME280;39838;59.938;30.642;2023-02-28T01:16:35;100257.38;;;0.70;89.58
48926;BME280;39838;59.938;30.642;2023-02-28T01:19:02;100247.13;;;0.69;89.75
48926;BME280;39838;59.938;30.642;2023-02-28T01:21:31;100247.22;;;0.72;89.33
48926;BME280;39838;59.938;30.642;2023-02-28T01:23:58;100240.19;;;0.66;89.43
48926;BME280;39838;59.938;30.642;2023-02-28T01:26:25;100251.34;;;0.68;89.35
48926;BME280;39838;59.938;30.642;2023-02-28T01:28:52;100246.34;;;0.71;89.60
48926;BME280;39838;59.938;30.642;2023-02-28T01:31:21;100240.34;;;0.71;89.59
48926;BME280;39838;59.938;30.642;2023-02-28T01:33:49;100247.38;;;0.76;89.59
48926;BME280;39838;59.938;30.642;2023-02-28T01:36:18;100240.41;;;0.72;89.16
48926;BME280;39838;59.938;30.642;2023-02-28T01:38:47;100227.63;;;0.72;89.50
48926;BME280;39838;59.938;30.642;2023-02-28T01:41:17;100240.41;;;0.72;89.36
48926;BME280;39838;59.938;30.642;2023-02-28T01:44:02;100220.72;;;0.70;88.99
48926;BME280;39838;59.938;30.642;2023-02-28T01:46:30;100240.34;;;0.71;89.36
48926;BME280;39838;59.938;30.642;2023-02-28T01:49:02;100200.13;;;0.67;88.90
48926;BME280;39838;59.938;30.642;2023-02-28T01:51:35;100210.50;;;0.70;88.90
48926;BME280;39838;59.938;30.642;2023-02-28T01:54:07;100194.16;;;0.66;89.29
48926;BME280;39838;59.938;30.642;2023-02-28T01:56:39;100211.09;;;0.63;89.13
48926;BME280;39838;59.938;30.642;2023-02-28T01:59:09;100213.88;;;0.69;89.38
48926;BME280;39838;59.938;30.642;2023-02-28T02:01:37;100218.03;;;0.67;89.38
48926;BME280;39838;59.938;30.642;2023-02-28T02:04:04;100207.88;;;0.68;88.96
48926;BME280;39838;59.938;30.642;2023-02-28T02:06:37;100230.72;;;0.64;89.18
48926;BME280;39838;59.938;30.642;2023-02-28T02:09:06;100210.38;;;0.67;88.65
48926;BME280;39838;59.938;30.642;2023-02-28T02:11:34;100211.31;;;0.69;89.28
48926;BME280;39838;59.938;30.642;2023-02-28T02:17:10;100208.91;;;0.73;89.16
48926;BME280;39838;59.938;30.642;2023-02-28T02:20:01;100190.59;;;0.61;88.67
48926;BME280;39838;59.938;30.642;2023-02-28T02:22:52;100195.03;;;0.67;88.79
48926;BME280;39838;59.938;30.642;2023-02-28T02:25:29;100212.13;;;0.68;88.62
48926;BME280;39838;59.938;30.642;2023-02-28T02:28:25;100187.25;;;0.64;88.66
48926;BME280;39838;59.938;30.642;2023-02-28T02:31:20;100202.78;;;0.68;88.79
48926;BME280;39838;59.938;30.642;2023-02-28T02:34:25;100211.31;;;0.69;88.65
48926;BME280;39838;59.938;30.642;2023-02-28T02:36:58;100200.13;;;0.67;88.58
48926;BME280;39838;59.938;30.642;2023-02-28T02:39:32;100198.53;;;0.69;88.76
48926;BME280;39838;59.938;30.642;2023-02-28T02:42:11;100202.03;;;0.72;88.77
48926;BME280;39838;59.938;30.642;2023-02-28T02:44:45;100195.97;;;0.69;88.20
48926;BME280;39838;59.938;30.642;2023-02-28T02:47:15;100207.13;;;0.71;88.90
48926;BME280;39838;59.938;30.642;2023-02-28T02:49:48;100166.50;;;0.54;88.43
48926;BME280;39838;59.938;30.642;2023-02-28T02:52:19;100185.84;;;0.72;88.86
48926;BME280;39838;59.938;30.642;2023-02-28T02:54:50;100184.31;;;0.77;88.47
48926;BME280;39838;59.938;30.642;2023-02-28T02:57:25;100193.72;;;0.78;88.30
48926;BME280;39838;59.938;30.642;2023-02-28T02:59:55;100186.75;;;0.74;88.22
48926;BME280;39838;59.938;30.642;2023-02-28T03:02:23;100173.06;;;0.72;88.68
48926;BME280;39838;59.938;30.642;2023-02-28T03:04:59;100120.31;;;0.50;88.09
48926;BME280;39838;59.938;30.642;2023-02-28T03:07:26;100164.28;;;0.65;88.76
48926;BME280;39838;59.938;30.642;2023-02-28T03:09:54;100179.03;;;0.72;88.37
48926;BME280;39838;59.938;30.642;2023-02-28T03:12:23;100144.84;;;0.69;88.20
48926;BME280;39838;59.938;30.642;2023-02-28T03:14:59;100145.09;;;0.76;88.06
48926;BME280;39838;59.938;30.642;2023-02-28T03:17:54;100162.94;;;0.75;87.76
48926;BME280;39838;59.938;30.642;2023-02-28T03:20:35;100170.50;;;0.72;87.81
48926;BME280;39838;59.938;30.642;2023-02-28T03:23:13;100147.38;;;0.69;88.46
48926;BME280;39838;59.938;30.642;2023-02-28T03:25:50;100154.31;;;0.73;87.93
48926;BME280;39838;59.938;30.642;2023-02-28T03:28:29;100150.03;;;0.72;87.90
48926;BME280;39838;59.938;30.642;2023-02-28T03:31:02;100144.13;;;0.74;88.06
48926;BME280;39838;59.938;30.642;2023-02-28T03:33:34;100142.47;;;0.75;87.99
48926;BME280;39838;59.938;30.642;2023-02-28T03:36:06;100133.16;;;0.77;87.82
48926;BME280;39838;59.938;30.642;2023-02-28T03:38:38;100142.56;;;0.78;87.71
48926;BME280;39838;59.938;30.642;2023-02-28T03:41:10;100113.94;;;0.63;87.78
48926;BME280;39838;59.938;30.642;2023-02-28T03:43:45;100142.75;;;0.82;87.89
48926;BME280;39838;59.938;30.642;2023-02-28T03:46:18;100139.41;;;0.85;87.73
48926;BME280;39838;59.938;30.642;2023-02-28T03:48:51;100139.41;;;0.85;87.72
48926;BME280;39838;59.938;30.642;2023-02-28T03:51:24;100142.88;;;0.87;87.75
48926;BME280;39838;59.938;30.642;2023-02-28T03:53:54;100133.41;;;0.85;87.47
48926;BME280;39838;59.938;30.642;2023-02-28T03:56:27;100124.06;;;0.85;87.34
48926;BME280;39838;59.938;30.642;2023-02-28T03:59:02;100127.47;;;0.86;87.55
48926;BME280;39838;59.938;30.642;2023-02-28T04:01:35;100143.72;;;0.88;87.85
48926;BME280;39838;59.938;30.642;2023-02-28T04:04:03;100141.94;;;0.85;87.55
48926;BME280;39838;59.938;30.642;2023-02-28T04:06:33;100145.59;;;0.92;87.80
48926;BME280;39838;59.938;30.642;2023-02-28T04:09:01;100132.84;;;0.93;87.53
48926;BME280;39838;59.938;30.642;2023-02-28T04:11:33;100134.50;;;0.91;87.15
48926;BME280;39838;59.938;30.642;2023-02-28T04:14:00;100145.63;;;0.93;87.36
48926;BME280;39838;59.938;30.642;2023-02-28T04:16:28;100142.97;;;0.90;87.35
48926;BME280;39838;59.938;30.642;2023-02-28T04:18:56;100145.53;;;0.90;87.35
48926;BME280;39838;59.938;30.642;2023-02-28T04:21:27;100140.31;;;0.87;87.26
48926;BME280;39838;59.938;30.642;2023-02-28T04:23:56;100146.25;;;0.86;86.94
48926;BME280;39838;59.938;30.642;2023-02-28T04:26:28;100143.66;;;0.85;87.54
48926;BME280;39838;59.938;30.642;2023-02-28T04:28:55;100156.28;;;0.80;87.13
48926;BME280;39838;59.938;30.642;2023-02-28T04:31:22;100140.19;;;0.82;87.04
48926;BME280;39838;59.938;30.642;2023-02-28T04:33:49;100126.25;;;0.74;87.35
48926;BME280;39838;59.938;30.642;2023-02-28T04:36:17;100127.03;;;0.72;87.08
48926;BME280;39838;59.938;30.642;2023-02-28T04:38:45;100115.25;;;0.77;87.58
48926;BME280;39838;59.938;30.642;2023-02-28T04:41:14;100113.53;;;0.76;87.16
48926;BME280;39838;59.938;30.642;2023-02-28T04:43:41;100094.69;;;0.74;86.62
48926;BME280;39838;59.938;30.642;2023-02-28T04:46:08;100101.41;;;0.70;87.20
48926;BME280;39838;59.938;30.642;2023-02-28T04:48:38;100096.03;;;0.63;87.18
48926;BME280;39838;59.938;30.642;2023-02-28T04:51:07;100118.19;;;0.62;86.93
48926;BME280;39838;59.938;30.642;2023-02-28T04:53:34;100111.59;;;0.69;86.93
48926;BME280;39838;59.938;30.642;2023-02-28T04:56:01;100112.41;;;0.68;87.26
48926;BME280;39838;59.938;30.642;2023-02-28T04:58:30;100130.41;;;0.71;87.20
48926;BME280;39838;59.938;30.642;2023-02-28T05:01:02;100121.69;;;0.66;87.05
48926;BME280;39838;59.938;30.642;2023-02-28T05:03:29;100126.81;;;0.66;87.15
48926;BME280;39838;59.938;30.642;2023-02-28T05:05:56;100135.44;;;0.68;87.55
48926;BME280;39838;59.938;30.642;2023-02-28T05:08:23;100128.50;;;0.65;87.66
48926;BME280;39838;59.938;30.642;2023-02-28T05:10:50;100144.72;;;0.66;87.33
48926;BME280;39838;59.938;30.642;2023-02-28T05:13:18;100139.59;;;0.66;87.26
48926;BME280;39838;59.938;30.642;2023-02-28T05:15:46;100136.13;;;0.64;87.13
48926;BME280;39838;59.938;30.642;2023-02-28T05:18:13;100135.22;;;0.62;87.15
48926;BME280;39838;59.938;30.642;2023-02-28T05:20:40;100122.31;;;0.59;87.78
48926;BME280;39838;59.938;30.642;2023-02-28T05:23:08;100129.28;;;0.63;87.73
48926;BME280;39838;59.938;30.642;2023-02-28T05:25:38;100112.28;;;0.65;87.21
48926;BME280;39838;59.938;30.642;2023-02-28T05:28:06;100119.25;;;0.69;87.36
48926;BME280;39838;59.938;30.642;2023-02-28T05:30:33;100127.88;;;0.72;87.12
48926;BME280;39838;59.938;30.642;2023-02-28T05:33:02;100137.25;;;0.72;87.15
48926;BME280;39838;59.938;30.642;2023-02-28T05:35:29;100134.00;;;0.76;86.98
48926;BME280;39838;59.938;30.642;2023-02-28T05:37:56;100125.44;;;0.75;86.96
48926;BME280;39838;59.938;30.642;2023-02-28T05:40:24;100129.78;;;0.78;87.02
48926;BME280;39838;59.938;30.642;2023-02-28T05:42:51;100151.22;;;0.81;86.98
48926;BME280;39838;59.938;30.642;2023-02-28T05:45:18;100156.44;;;0.85;86.75
48926;BME280;39838;59.938;30.642;2023-02-28T05:47:45;100179.41;;;0.83;87.01
48926;BME280;39838;59.938;30.642;2023-02-28T05:50:13;100183.78;;;0.87;86.43
48926;BME280;39838;59.938;30.642;2023-02-28T05:52:41;100234.72;;;0.81;86.79
48926;BME280;39838;59.938;30.642;2023-02-28T05:55:08;100233.66;;;0.50;85.88
48926;BME280;39838;59.938;30.642;2023-02-28T05:57:35;100232.66;;;0.23;85.57
48926;BME280;39838;59.938;30.642;2023-02-28T06:00:03;100236.97;;;0.02;84.31
48926;BME280;39838;59.938;30.642;2023-02-28T06:02:30;100225.50;;;-0.08;80.28
48926;BME280;39838;59.938;30.642;2023-02-28T06:04:58;100207.59;;;-0.10;81.14
48926;BME280;39838;59.938;30.642;2023-02-28T06:07:26;100200.84;;;-0.08;80.43
48926;BME280;39838;59.938;30.642;2023-02-28T06:09:53;100219.69;;;-0.06;79.91
48926;BME280;39838;59.938;30.642;2023-02-28T06:12:20;100199.38;;;-0.01;77.65
48926;BME280;39838;59.938;30.642;2023-02-28T06:14:47;100199.66;;;0.07;76.86
48926;BME280;39838;59.938;30.642;2023-02-28T06:17:14;100213.41;;;0.09;76.94
48926;BME280;39838;59.938;30.642;2023-02-28T06:19:41;100179.91;;;0.01;76.37
48926;BME280;39838;59.938;30.642;2023-02-28T06:22:08;100199.25;;;0.18;76.47
48926;BME280;39838;59.938;30.642;2023-02-28T06:24:37;100217.31;;;0.23;76.40
48926;BME280;39838;59.938;30.642;2023-02-28T06:27:04;100214.88;;;0.26;76.29
48926;BME280;39838;59.938;30.642;2023-02-28T06:29:32;100218.38;;;0.28;76.32
48926;BME280;39838;59.938;30.642;2023-02-28T06:31:59;100214.94;;;0.28;76.08
48926;BME280;39838;59.938;30.642;2023-02-28T06:34:26;100228.66;;;0.30;76.04
48926;BME280;39838;59.938;30.642;2023-02-28T06:36:53;100229.63;;;0.33;76.68
48926;BME280;39838;59.938;30.642;2023-02-28T06:39:21;100238.44;;;0.41;77.09
48926;BME280;39838;59.938;30.642;2023-02-28T06:41:49;100243.63;;;0.43;76.72
48926;BME280;39838;59.938;30.642;2023-02-28T06:44:18;100244.66;;;0.48;77.07
48926;BME280;39838;59.938;30.642;2023-02-28T06:46:45;100255.06;;;0.54;77.50
48926;BME280;39838;59.938;30.642;2023-02-28T06:49:12;100258.63;;;0.58;77.25
48926;BME280;39838;59.938;30.642;2023-02-28T06:51:41;100243.84;;;0.49;77.14
48926;BME280;39838;59.938;30.642;2023-02-28T06:54:10;100274.88;;;0.60;77.63
48926;BME280;39838;59.938;30.642;2023-02-28T06:56:38;100281.63;;;0.58;77.20
48926;BME280;39838;59.938;30.642;2023-02-28T06:59:06;100292.69;;;0.57;77.39
48926;BME280;39838;59.938;30.642;2023-02-28T07:01:33;100297.97;;;0.61;77.27
48926;BME280;39838;59.938;30.642;2023-02-28T07:04:01;100301.28;;;0.59;76.07
48926;BME280;39838;59.938;30.642;2023-02-28T07:06:28;100331.13;;;0.60;75.58
48926;BME280;39838;59.938;30.642;2023-02-28T07:08:55;100343.91;;;0.60;73.18
48926;BME280;39838;59.938;30.642;2023-02-28T07:11:24;100332.53;;;0.51;72.00
48926;BME280;39838;59.938;30.642;2023-02-28T07:13:52;100315.47;;;0.50;69.51
48926;BME280;39838;59.938;30.642;2023-02-28T07:16:21;100307.63;;;0.46;70.29
48926;BME280;39838;59.938;30.642;2023-02-28T07:18:48;100306.06;;;0.49;68.96
48926;BME280;39838;59.938;30.642;2023-02-28T07:21:15;100295.94;;;0.52;68.06
48926;BME280;39838;59.938;30.642;2023-02-28T07:23:43;100290.13;;;0.57;67.19
48926;BME280;39838;59.938;30.642;2023-02-28T07:26:12;100280.59;;;0.52;65.77
48926;BME280;39838;59.938;30.642;2023-02-28T07:28:40;100285.03;;;0.57;65.17
48926;BME280;39838;59.938;30.642;2023-02-28T07:31:08;100284.16;;;0.56;64.63
48926;BME280;39838;59.938;30.642;2023-02-28T07:33:37;100294.47;;;0.59;64.06
48926;BME280;39838;59.938;30.642;2023-02-28T07:36:07;100272.09;;;0.53;61.99
48926;BME280;39838;59.938;30.642;2023-02-28T07:38:34;100304.69;;;0.59;61.74
48926;BME280;39838;59.938;30.642;2023-02-28T07:41:02;100300.53;;;0.61;61.16
48926;BME280;39838;59.938;30.642;2023-02-28T07:43:30;100306.53;;;0.62;59.89
48926;BME280;39838;59.938;30.642;2023-02-28T07:46:01;100305.78;;;0.66;59.44
48926;BME280;39838;59.938;30.642;2023-02-28T07:48:28;100300.72;;;0.67;60.14
48926;BME280;39838;59.938;30.642;2023-02-28T07:50:58;100309.50;;;0.74;59.35
48926;BME280;39838;59.938;30.642;2023-02-28T07:53:25;100297.72;;;0.77;58.56
48926;BME280;39838;59.938;30.642;2023-02-28T07:55:55;100311.59;;;0.84;58.20
48926;BME280;39838;59.938;30.642;2023-02-28T07:58:22;100294.13;;;0.96;57.17
48926;BME280;39838;59.938;30.642;2023-02-28T08:00:49;100313.00;;;1.00;56.02
48926;BME280;39838;59.938;30.642;2023-02-28T08:03:17;100300.97;;;0.97;55.32
48926;BME280;39838;59.938;30.642;2023-02-28T08:05:44;100292.38;;;0.95;55.49
48926;BME280;39838;59.938;30.642;2023-02-28T08:08:13;100296.69;;;0.96;56.09
48926;BME280;39838;59.938;30.642;2023-02-28T08:10:41;100286.31;;;0.93;55.45
48926;BME280;39838;59.938;30.642;2023-02-28T08:13:08;100298.41;;;0.97;55.32
48926;BME280;39838;59.938;30.642;2023-02-28T08:15:36;100299.94;;;0.92;55.06
48926;BME280;39838;59.938;30.642;2023-02-28T08:18:03;100309.28;;;0.92;54.12
48926;BME280;39838;59.938;30.642;2023-02-28T08:20:30;100304.72;;;0.83;54.02
48926;BME280;39838;59.938;30.642;2023-02-28T08:22:57;100294.81;;;0.92;54.15
48926;BME280;39838;59.938;30.642;2023-02-28T08:25:26;100297.69;;;1.01;54.08
48926;BME280;39838;59.938;30.642;2023-02-28T08:27:53;100301.31;;;1.08;53.71
48926;BME280;39838;59.938;30.642;2023-02-28T08:30:20;100322.09;;;1.16;53.43
48926;BME280;39838;59.938;30.642;2023-02-28T08:32:47;100323.88;;;1.18;52.07
48926;BME280;39838;59.938;30.642;2023-02-28T08:35:14;100314.41;;;1.16;52.37
48926;BME280;39838;59.938;30.642;2023-02-28T08:37:41;100324.09;;;1.24;52.76
48926;BME280;39838;59.938;30.642;2023-02-28T08:40:09;100320.81;;;1.28;52.30
48926;BME280;39838;59.938;30.642;2023-02-28T08:42:40;100328.56;;;1.30;51.71
48926;BME280;39838;59.938;30.642;2023-02-28T08:45:08;100317.38;;;1.28;52.69
48926;BME280;39838;59.938;30.642;2023-02-28T08:47:35;100344.56;;;1.24;49.05
48926;BME280;39838;59.938;30.642;2023-02-28T08:50:02;100327.88;;;1.10;49.28
48926;BME280;39838;59.938;30.642;2023-02-28T08:52:30;100341.03;;;0.97;49.83
48926;BME280;39838;59.938;30.642;2023-02-28T08:54:57;100326.25;;;0.88;49.50
48926;BME280;39838;59.938;30.642;2023-02-28T08:57:24;100337.13;;;0.82;49.90
48926;BME280;39838;59.938;30.642;2023-02-28T08:59:54;100367.56;;;0.76;50.22
48926;BME280;39838;59.938;30.642;2023-02-28T09:02:21;100366.75;;;0.77;49.09
48926;BME280;39838;59.938;30.642;2023-02-28T09:04:48;100367.56;;;0.76;48.88
48926;BME280;39838;59.938;30.642;2023-02-28T09:07:15;100360.88;;;0.80;48.67
48926;BME280;39838;59.938;30.642;2023-02-28T09:09:42;100359.25;;;0.82;48.50
48926;BME280;39838;59.938;30.642;2023-02-28T09:12:19;100349.03;;;0.82;47.30
48926;BME280;39838;59.938;30.642;2023-02-28T09:14:46;100371.34;;;0.86;47.37
48926;BME280;39838;59.938;30.642;2023-02-28T09:17:15;100398.66;;;0.87;46.69
48926;BME280;39838;59.938;30.642;2023-02-28T09:19:42;100420.06;;;0.89;44.50
48926;BME280;39838;59.938;30.642;2023-02-28T09:22:10;100343.91;;;0.82;44.18
48926;BME280;39838;59.938;30.642;2023-02-28T09:24:37;100359.88;;;0.99;44.35
48926;BME280;39838;59.938;30.642;2023-02-28T09:27:05;100366.75;;;1.01;44.14
48926;BME280;39838;59.938;30.642;2023-02-28T09:29:33;100360.13;;;1.06;42.49
48926;BME280;39838;59.938;30.642;2023-02-28T09:32:01;100377.13;;;1.04;42.07
48926;BME280;39838;59.938;30.642;2023-02-28T09:34:32;100371.00;;;1.01;41.50
48926;BME280;39838;59.938;30.642;2023-02-28T09:36:59;100367.50;;;0.97;41.87
48926;BME280;39838;59.938;30.642;2023-02-28T09:39:26;100371.25;;;1.07;42.00
48926;BME280;39838;59.938;30.642;2023-02-28T09:41:55;100373.47;;;1.22;42.24
48926;BME280;39838;59.938;30.642;2023-02-28T09:44:27;100414.59;;;1.26;41.13
48926;BME280;39838;59.938;30.642;2023-02-28T09:46:57;100402.72;;;1.28;41.08
48926;BME280;39838;59.938;30.642;2023-02-28T09:49:34;100367.78;;;1.29;40.23
48926;BME280;39838;59.938;30.642;2023-02-28T09:52:06;100388.91;;;1.23;40.57
48926;BME280;39838;59.938;30.642;2023-02-28T09:54:36;100374.78;;;1.34;41.31
48926;BME280;39838;59.938;30.642;2023-02-28T09:57:08;100368.09;;;1.38;41.58
48926;BME280;39838;59.938;30.642;2023-02-28T09:59:44;100385.66;;;1.53;41.17
48926;BME280;39838;59.938;30.642;2023-02-28T10:02:37;100390.94;;;1.57;40.65
48926;BME280;39838;59.938;30.642;2023-02-28T10:05:12;100381.22;;;1.73;40.82
48926;BME280;39838;59.938;30.642;2023-02-28T10:07:53;100386.28;;;1.97;39.98
48926;BME280;39838;59.938;30.642;2023-02-28T10:10:27;100383.63;;;2.21;40.31
48926;BME280;39838;59.938;30.642;2023-02-28T10:12:59;100391.38;;;2.22;39.97
48926;BME280;39838;59.938;30.642;2023-02-28T10:15:29;100390.97;;;2.37;39.93
48926;BME280;39838;59.938;30.642;2023-02-28T10:18:00;100402.91;;;2.36;38.69
48926;BME280;39838;59.938;30.642;2023-02-28T10:20:32;100388.25;;;2.31;39.44
48926;BME280;39838;59.938;30.642;2023-02-28T10:23:05;100380.66;;;2.35;39.87
48926;BME280;39838;59.938;30.642;2023-02-28T10:25:37;100395.66;;;2.50;39.68
48926;BME280;39838;59.938;30.642;2023-02-28T10:28:10;100408.78;;;2.59;39.47
48926;BME280;39838;59.938;30.642;2023-02-28T10:30:40;100411.97;;;2.52;38.79
48926;BME280;39838;59.938;30.642;2023-02-28T10:33:19;100400.31;;;2.35;39.17
48926;BME280;39838;59.938;30.642;2023-02-28T10:35:50;100395.63;;;2.22;39.45
48926;BME280;39838;59.938;30.642;2023-02-28T10:38:19;100396.09;;;2.10;39.79
48926;BME280;39838;59.938;30.642;2023-02-28T10:40:47;100407.53;;;1.94;40.54
48926;BME280;39838;59.938;30.642;2023-02-28T10:43:20;100383.41;;;1.62;39.82
48926;BME280;39838;59.938;30.642;2023-02-28T10:46:02;100402.53;;;1.72;39.21
48926;BME280;39838;59.938;30.642;2023-02-28T10:48:34;100409.13;;;1.65;40.15
48926;BME280;39838;59.938;30.642;2023-02-28T10:51:04;100424.63;;;1.44;39.64
48926;BME280;39838;59.938;30.642;2023-02-28T10:53:34;100418.19;;;1.31;39.52
48926;BME280;39838;59.938;30.642;2023-02-28T10:56:04;100412.06;;;1.28;40.08
48926;BME280;39838;59.938;30.642;2023-02-28T10:58:46;100409.41;;;1.25;39.86
48926;BME280;39838;59.938;30.642;2023-02-28T11:01:15;100409.00;;;1.36;39.93
48926;BME280;39838;59.938;30.642;2023-02-28T11:03:43;100414.47;;;1.47;40.10
48926;BME280;39838;59.938;30.642;2023-02-28T11:06:17;100403.75;;;1.57;40.51
48926;BME280;39838;59.938;30.642;2023-02-28T11:08:48;100432.06;;;1.62;39.52
48926;BME280;39838;59.938;30.642;2023-02-28T11:11:16;100403.72;;;1.56;40.34
48926;BME280;39838;59.938;30.642;2023-02-28T11:13:45;100415.44;;;1.49;40.09
48926;BME280;39838;59.938;30.642;2023-02-28T11:16:14;100415.91;;;1.39;40.08
48926;BME280;39838;59.938;30.642;2023-02-28T11:18:46;100427.66;;;1.34;39.95
48926;BME280;39838;59.938;30.642;2023-02-28T11:21:26;100422.66;;;1.37;39.70
48926;BME280;39838;59.938;30.642;2023-02-28T11:23:58;100400.75;;;1.45;39.87
48926;BME280;39838;59.938;30.642;2023-02-28T11:26:42;100396.59;;;1.49;39.44
48926;BME280;39838;59.938;30.642;2023-02-28T11:29:20;100400.47;;;1.61;39.75
48926;BME280;39838;59.938;30.642;2023-02-28T11:32:09;100392.03;;;1.64;39.58
48926;BME280;39838;59.938;30.642;2023-02-28T11:34:42;100420.13;;;1.62;38.04
48926;BME280;39838;59.938;30.642;2023-02-28T11:37:16;100417.09;;;1.49;37.21
48926;BME280;39838;59.938;30.642;2023-02-28T11:39:44;100412.69;;;1.45;36.00
48926;BME280;39838;59.938;30.642;2023-02-28T11:42:39;100404.63;;;1.34;36.36
48926;BME280;39838;59.938;30.642;2023-02-28T11:45:35;100411.84;;;1.22;35.08
48926;BME280;39838;59.938;30.642;2023-02-28T11:48:16;100465.31;;;1.14;36.75
48926;BME280;39838;59.938;30.642;2023-02-28T11:50:58;100412.25;;;1.08;36.52
48926;BME280;39838;59.938;30.642;2023-02-28T11:53:46;100426.28;;;0.96;36.97
48926;BME280;39838;59.938;30.642;2023-02-28T11:56:19;100413.13;;;0.87;36.93
48926;BME280;39838;59.938;30.642;2023-02-28T11:58:55;100412.16;;;0.83;36.65
48926;BME280;39838;59.938;30.642;2023-02-28T12:01:38;100401.50;;;0.72;36.96
48926;BME280;39838;59.938;30.642;2023-02-28T12:04:20;100406.09;;;0.59;36.06
48926;BME280;39838;59.938;30.642;2023-02-28T12:06:57;100430.50;;;0.73;34.40
48926;BME280;39838;59.938;30.642;2023-02-28T12:09:40;100413.25;;;0.67;33.49
48926;BME280;39838;59.938;30.642;2023-02-28T12:12:19;100415.78;;;0.67;33.75
48926;BME280;39838;59.938;30.642;2023-02-28T12:15:14;100379.47;;;0.53;34.43
48926;BME280;39838;59.938;30.642;2023-02-28T12:17:52;100415.41;;;0.57;34.13
48926;BME280;39838;59.938;30.642;2023-02-28T12:20:29;100413.78;;;0.59;34.47
48926;BME280;39838;59.938;30.642;2023-02-28T12:23:22;100431.84;;;0.41;34.10
48926;BME280;39838;59.938;30.642;2023-02-28T12:26:01;100430.22;;;0.43;34.44
48926;BME280;39838;59.938;30.642;2023-02-28T12:28:34;100455.81;;;0.44;33.86
48926;BME280;39838;59.938;30.642;2023-02-28T12:31:09;100451.72;;;0.48;33.33
48926;BME280;39838;59.938;30.642;2023-02-28T12:33:42;100442.94;;;0.41;33.73
48926;BME280;39838;59.938;30.642;2023-02-28T12:36:13;100426.47;;;0.35;33.25
48926;BME280;39838;59.938;30.642;2023-02-28T12:38:46;100457.81;;;0.31;33.05
48926;BME280;39838;59.938;30.642;2023-02-28T12:41:18;100433.13;;;0.31;33.93
48926;BME280;39838;59.938;30.642;2023-02-28T12:43:50;100412.97;;;0.16;33.62
48926;BME280;39838;59.938;30.642;2023-02-28T12:46:21;100440.59;;;0.26;33.00
48926;BME280;39838;59.938;30.642;2023-02-28T12:48:53;100430.47;;;0.28;33.73
48926;BME280;39838;59.938;30.642;2023-02-28T12:51:23;100432.03;;;0.24;33.45
48926;BME280;39838;59.938;30.642;2023-02-28T12:53:59;100403.69;;;-0.03;33.89
48926;BME280;39838;59.938;30.642;2023-02-28T12:56:38;100410.66;;;0.02;34.28
48926;BME280;39838;59.938;30.642;2023-02-28T12:59:14;100442.84;;;0.19;34.31
48926;BME280;39838;59.938;30.642;2023-02-28T13:02:09;100429.47;;;0.24;34.59
48926;BME280;39838;59.938;30.642;2023-02-28T13:08:12;100433.75;;;0.25;35.20
48926;BME280;39838;59.938;30.642;2023-02-28T13:10:48;100434.06;;;0.33;36.00
48926;BME280;39838;59.938;30.642;2023-02-28T13:13:22;100420.34;;;0.31;34.74
48926;BME280;39838;59.938;30.642;2023-02-28T13:15:59;100442.78;;;0.38;34.60